Time;durP1;ratioP1;P1;durP2;ratioP2;P2;SDS_P1;SDS_P2;PMS_P1;PMS_P2;Temp;Humidity;BMP_temperature;BMP_pressure;BME280_temperature;BME280_humidity;BME280_pressure;Samples;Min_cycle;Max_cycle;Signal;HPM_P1;HPM_P2
2022/11/29 00:01:34;;;;;;;1.05;0.80;;;;;;;5.80;100.00;100298.03;5012930;28;20026;-66
2022/11/29 00:04:00;;;;;;;0.95;0.70;;;;;;;5.83;100.00;100298.00;5012836;28;20543;-67
2022/11/29 00:06:28;;;;;;;1.17;0.80;;;;;;;5.63;100.00;100275.38;5012305;28;20034;-66
2022/11/29 00:08:56;;;;;;;1.48;0.98;;;;;;;5.67;100.00;100286.28;5012875;28;20033;-66
2022/11/29 00:14:11;;;;;;;1.10;0.80;;;;;;;5.95;100.00;100323.22;5012525;28;20103;-66
2022/11/29 00:16:39;;;;;;;1.52;0.70;;;;;;;5.94;100.00;100281.19;5012380;28;20030;-66
2022/11/29 00:19:05;;;;;;;1.02;0.70;;;;;;;5.69;100.00;100264.44;5011506;28;20805;-66
2022/11/29 00:21:30;;;;;;;2.35;0.90;;;;;;;5.80;100.00;100273.63;5010731;28;20034;-66
2022/11/29 00:23:56;;;;;;;1.27;1.00;;;;;;;5.79;100.00;100244.22;5012419;28;20022;-66
2022/11/29 00:26:21;;;;;;;1.33;0.85;;;;;;;5.90;100.00;100287.09;5011874;28;20156;-66
2022/11/29 00:28:46;;;;;;;0.80;0.70;;;;;;;5.64;100.00;100264.47;5012134;28;20113;-66
2022/11/29 00:31:29;;;;;;;0.80;0.60;;;;;;;6.18;100.00;100310.50;5011800;28;20079;-65
2022/11/29 00:33:56;;;;;;;1.05;0.70;;;;;;;5.70;100.00;100264.44;5012173;28;20083;-66
2022/11/29 00:36:22;;;;;;;1.08;0.73;;;;;;;6.12;100.00;100308.84;5011918;28;20030;-65
2022/11/29 00:38:47;;;;;;;2.35;1.00;;;;;;;5.99;100.00;100315.63;5011479;28;20058;-65
2022/11/29 00:41:13;;;;;;;1.50;1.20;;;;;;;6.10;100.00;100318.13;5012316;28;20162;-65
2022/11/29 00:43:38;;;;;;;2.85;1.73;;;;;;;5.80;100.00;100275.31;5012145;28;20046;-66
2022/11/29 00:46:04;;;;;;;2.70;1.30;;;;;;;5.69;100.00;100279.56;5011147;28;20030;-66
2022/11/29 00:48:30;;;;;;;1.55;1.15;;;;;;;6.00;100.00;100312.25;5012034;28;20061;-66
2022/11/29 00:50:56;;;;;;;0.73;0.60;;;;;;;5.66;100.00;100277.06;5010597;28;20103;-67
2022/11/29 00:53:22;;;;;;;1.35;0.70;;;;;;;5.93;100.00;100312.28;5011382;28;20500;-66
2022/11/29 00:55:48;;;;;;;1.58;0.70;;;;;;;5.89;100.00;100298.00;5011211;28;20034;-67
2022/11/29 00:58:14;;;;;;;1.00;0.63;;;;;;;5.74;100.00;100242.56;5011326;28;20083;-66
2022/11/29 01:00:39;;;;;;;0.88;0.60;;;;;;;5.33;100.00;100194.00;5011500;28;20112;-67
2022/11/29 01:03:05;;;;;;;0.90;0.60;;;;;;;6.00;100.00;100271.88;5011121;28;20163;-67
2022/11/29 01:05:31;;;;;;;0.50;0.45;;;;;;;6.17;100.00;100271.81;5011508;28;20420;-66
2022/11/29 01:07:57;;;;;;;1.08;0.60;;;;;;;5.98;100.00;100266.00;5010301;28;20033;-67
2022/11/29 01:10:22;;;;;;;0.70;0.60;;;;;;;6.05;100.00;100249.16;5011623;28;20033;-67
2022/11/29 01:12:48;;;;;;;1.15;0.65;;;;;;;5.81;100.00;100234.97;5009723;28;20420;-67
2022/11/29 01:15:13;;;;;;;0.88;0.70;;;;;;;5.92;100.00;100255.13;5011538;28;20412;-66
2022/11/29 01:17:39;;;;;;;0.80;0.70;;;;;;;6.12;100.00;100297.06;5011292;28;20053;-67
2022/11/29 01:20:06;;;;;;;0.85;0.55;;;;;;;6.09;100.00;100291.19;5011224;28;20044;-66
2022/11/29 01:22:33;;;;;;;1.27;0.63;;;;;;;5.59;100.00;100217.41;5010929;28;20587;-67
2022/11/29 01:24:59;;;;;;;0.75;0.60;;;;;;;6.12;100.00;100289.50;5011257;28;20113;-67
2022/11/29 01:27:24;;;;;;;0.80;0.70;;;;;;;5.97;100.00;100261.81;5011372;28;20195;-67
2022/11/29 01:29:49;;;;;;;0.52;0.43;;;;;;;5.76;100.00;100263.56;5010570;28;20437;-67
2022/11/29 01:32:15;;;;;;;0.52;0.45;;;;;;;5.74;100.00;100260.22;5011224;28;20503;-66
2022/11/29 01:34:40;;;;;;;0.65;0.40;;;;;;;5.83;100.00;100308.97;5011333;28;20037;-67
2022/11/29 01:37:06;;;;;;;0.73;0.40;;;;;;;5.80;100.00;100308.13;5010536;28;20036;-67
2022/11/29 01:39:31;;;;;;;0.70;0.50;;;;;;;5.86;100.00;100303.91;5010483;28;20560;-67
2022/11/29 01:41:58;;;;;;;0.40;0.40;;;;;;;5.82;100.00;100268.59;5011165;28;20030;-67
2022/11/29 01:44:24;;;;;;;0.70;0.30;;;;;;;5.95;100.00;100319.03;5010850;28;20473;-67
2022/11/29 01:46:49;;;;;;;0.77;0.40;;;;;;;5.77;100.00;100272.81;5010793;28;20022;-66
2022/11/29 01:49:29;;;;;;;0.50;0.47;;;;;;;5.84;100.00;100315.69;5010905;28;20026;-67
2022/11/29 01:51:59;;;;;;;0.85;0.50;;;;;;;5.52;100.00;100254.41;5010758;28;20485;-67
2022/11/29 01:54:25;;;;;;;0.40;0.40;;;;;;;5.61;100.00;100286.31;5010278;28;20065;-67
2022/11/29 01:56:51;;;;;;;0.93;0.40;;;;;;;5.88;100.00;100307.25;5009107;28;20156;-67
2022/11/29 01:59:20;;;;;;;0.93;0.68;;;;;;;5.65;100.00;100260.22;5008990;28;20099;-66
2022/11/29 02:01:46;;;;;;;1.17;0.80;;;;;;;5.77;100.00;100260.19;5010833;28;20064;-67
2022/11/29 02:04:12;;;;;;;0.80;0.60;;;;;;;5.86;100.00;100298.84;5010748;28;20119;-67
2022/11/29 02:06:40;;;;;;;0.88;0.40;;;;;;;5.63;100.00;100250.16;5010337;28;20034;-67
2022/11/29 02:09:19;;;;;;;0.60;0.50;;;;;;;5.72;100.00;100287.97;5010625;28;20056;-67
2022/11/29 02:12:15;;;;;;;0.75;0.40;;;;;;;5.69;100.00;100293.00;5010463;28;20025;-66
2022/11/29 02:14:59;;;;;;;0.80;0.50;;;;;;;5.86;100.00;100277.84;5001311;28;20022;-68
2022/11/29 02:18:05;;;;;;;0.40;0.40;;;;;;;5.73;100.00;100269.47;4990687;28;20030;-66
2022/11/29 02:20:59;;;;;;;0.95;0.43;;;;;;;5.72;100.00;100269.47;4984941;28;20039;-66
2022/11/29 02:23:46;;;;;;;0.80;0.35;;;;;;;5.85;100.00;100271.13;4990933;28;20034;-66
2022/11/29 02:26:20;;;;;;;1.30;0.60;;;;;;;5.93;100.00;100255.13;4989080;28;20038;-66
2022/11/29 02:29:13;;;;;;;2.78;0.70;;;;;;;5.85;100.00;100271.13;4990711;28;20085;-66
2022/11/29 02:32:16;;;;;;;1.67;1.00;;;;;;;5.99;100.00;100269.38;4992913;28;20057;-66
2022/11/29 02:35:00;;;;;;;1.30;0.50;;;;;;;6.07;100.00;100272.69;4997411;28;20052;-67
2022/11/29 02:37:55;;;;;;;1.20;0.70;;;;;;;6.03;100.00;100276.09;4990618;28;20023;-67
2022/11/29 02:40:26;;;;;;;1.10;0.70;;;;;;;5.95;100.00;100287.91;4990394;28;20105;-70
2022/11/29 02:43:09;;;;;;;0.93;0.60;;;;;;;5.97;100.00;100291.25;4990405;28;20883;-67
2022/11/29 02:45:43;;;;;;;0.70;0.50;;;;;;;5.90;100.00;100300.53;4989441;28;20555;-67
2022/11/29 02:48:15;;;;;;;0.82;0.55;;;;;;;5.86;100.00;100308.94;4996021;28;20585;-67
2022/11/29 02:50:54;;;;;;;1.40;0.65;;;;;;;5.87;100.00;100315.69;5001591;28;20065;-67
2022/11/29 02:53:25;;;;;;;1.83;0.98;;;;;;;5.88;100.00;100306.44;4993261;28;20124;-67
2022/11/29 02:56:09;;;;;;;;;;;;;;;5.73;100.00;100306.44;4990962;28;20053;-67
2022/11/29 02:58:37;;;;;;;0.82;0.50;;;;;;;5.81;100.00;100303.06;4990303;28;20431;-67
2022/11/29 03:01:21;;;;;;;0.98;0.60;;;;;;;5.75;100.00;100304.75;4989295;28;20120;-67
2022/11/29 03:04:05;;;;;;;0.77;0.60;;;;;;;5.76;100.00;100311.50;4990193;28;20035;-66
2022/11/29 03:06:49;;;;;;;0.50;0.50;;;;;;;5.62;100.00;100303.13;4990482;28;20412;-67
2022/11/29 03:09:42;;;;;;;2.00;0.70;;;;;;;5.83;100.00;100321.59;4991120;28;20026;-67
2022/11/29 03:12:40;;;;;;;1.30;0.60;;;;;;;5.87;100.00;100323.25;4993000;28;20806;-67
2022/11/29 03:15:14;;;;;;;0.88;0.50;;;;;;;5.76;100.00;100324.94;4957713;28;20042;-66
2022/11/29 03:18:11;;;;;;;0.40;0.38;;;;;;;5.84;100.00;100313.16;4990379;28;20042;-66
2022/11/29 03:21:07;;;;;;;1.13;0.73;;;;;;;5.76;100.00;100322.44;4998973;28;20049;-67
2022/11/29 03:23:59;;;;;;;1.38;0.70;;;;;;;5.85;100.00;100306.44;5002119;28;20030;-67
2022/11/29 03:26:34;;;;;;;;;;;;;;;5.84;100.00;100303.06;4993954;28;20030;-67
2022/11/29 03:29:29;;;;;;;2.72;0.88;;;;;;;5.63;100.00;100259.41;4993691;28;20359;-66
2022/11/29 03:32:13;;;;;;;1.10;0.57;;;;;;;5.85;100.00;100306.44;5000408;28;20046;-67
2022/11/29 03:34:56;;;;;;;0.50;0.30;;;;;;;6.15;100.00;100306.31;5012992;28;20497;-66
2022/11/29 03:37:44;;;;;;;1.00;0.50;;;;;;;5.57;100.00;100224.97;5008166;28;20034;-66
2022/11/29 03:40:14;;;;;;;0.60;0.50;;;;;;;5.68;100.00;100252.69;5011722;28;20085;-66
2022/11/29 03:42:53;;;;;;;0.63;0.40;;;;;;;6.07;100.00;100300.47;4995939;28;20054;-66
2022/11/29 03:45:28;;;;;;;2.78;0.35;;;;;;;5.75;100.00;100229.09;5010970;28;20060;-66
2022/11/29 03:48:06;;;;;;;2.58;0.30;;;;;;;6.43;100.00;100253.97;5011138;28;20141;-67
2022/11/29 03:50:45;;;;;;;0.30;0.30;;;;;;;5.81;100.00;100279.50;5007759;28;20030;-67
2022/11/29 03:53:25;;;;;;;0.30;0.25;;;;;;;6.03;100.00;100276.09;4991779;28;20088;-67
2022/11/29 03:56:02;;;;;;;0.63;0.30;;;;;;;6.37;100.00;100322.19;4993107;28;20057;-67
2022/11/29 03:58:48;;;;;;;0.73;0.50;;;;;;;6.13;100.00;100328.19;4993647;28;20493;-68
2022/11/29 04:01:20;;;;;;;0.20;0.20;;;;;;;6.22;100.00;100334.91;4995240;28;20092;-69
2022/11/29 04:04:03;;;;;;;0.35;0.30;;;;;;;6.31;100.00;100338.22;4993322;28;20034;-68
2022/11/29 04:06:37;;;;;;;0.70;0.50;;;;;;;6.24;100.00;100336.53;5005815;28;20056;-67
2022/11/29 04:09:15;;;;;;;0.93;0.60;;;;;;;6.28;100.00;100338.19;5008438;28;20042;-67
2022/11/29 04:11:57;;;;;;;0.90;0.63;;;;;;;6.34;100.00;100343.22;5000374;28;20037;-67
2022/11/29 04:14:29;;;;;;;1.10;0.52;;;;;;;6.27;100.00;100336.53;5011045;28;20036;-67
2022/11/29 04:17:20;;;;;;;0.57;0.40;;;;;;;6.25;100.00;100343.28;5012251;28;20044;-67
2022/11/29 04:20:26;;;;;;;0.50;0.35;;;;;;;6.38;100.00;100339.03;5004586;28;20037;-68
2022/11/29 04:23:10;;;;;;;1.40;1.15;;;;;;;5.99;100.00;100350.97;5014516;28;20034;-67
2022/11/29 04:25:57;;;;;;;0.80;0.60;;;;;;;5.83;100.00;100316.53;4992591;28;20429;-67
2022/11/29 04:28:57;;;;;;;0.47;0.40;;;;;;;5.96;100.00;100340.88;4992820;28;20035;-67
2022/11/29 04:31:58;;;;;;;1.27;0.60;;;;;;;5.92;100.00;100324.06;4995651;28;20096;-68
2022/11/29 04:34:38;;;;;;;0.80;0.50;;;;;;;5.67;100.00;100337.56;4970702;28;20047;-68
2022/11/29 04:37:15;;;;;;;2.78;0.40;;;;;;;5.82;100.00;100326.59;5001047;28;20041;-67
2022/11/29 04:40:11;;;;;;;0.40;0.25;;;;;;;5.77;100.00;100331.66;4995347;28;20041;-67
2022/11/29 04:42:42;;;;;;;0.38;0.30;;;;;;;5.59;100.00;100333.38;5012061;28;20037;-68
2022/11/29 04:45:34;;;;;;;0.22;0.22;;;;;;;5.64;100.00;100332.56;5002116;28;20042;-67
2022/11/29 04:48:23;;;;;;;0.25;0.25;;;;;;;5.76;100.00;100330.00;5006962;28;20045;-67
2022/11/29 04:50:59;;;;;;;1.13;0.30;;;;;;;5.73;100.00;100337.56;5008399;28;20424;-70
2022/11/29 04:53:48;;;;;;;0.20;0.20;;;;;;;6.35;100.00;100324.72;5009622;28;20037;-67
2022/11/29 04:56:27;;;;;;;0.52;0.38;;;;;;;5.76;100.00;100337.56;5010989;28;20112;-67
2022/11/29 04:59:34;;;;;;;0.75;0.50;;;;;;;5.76;100.00;100347.66;5011046;28;20037;-67
2022/11/29 05:02:06;;;;;;;0.90;0.52;;;;;;;5.70;100.00;100341.78;4988560;28;20041;-67
2022/11/29 05:05:23;;;;;;;1.60;0.65;;;;;;;5.73;100.00;100346.78;5007813;28;20048;-68
2022/11/29 05:08:26;;;;;;;1.48;0.90;;;;;;;5.76;100.00;100355.22;4989249;28;20939;-67
2022/11/29 05:10:53;;;;;;;2.13;1.40;;;;;;;5.80;100.00;100363.59;4989396;28;20555;-67
2022/11/29 05:13:28;;;;;;;1.80;1.20;;;;;;;5.77;100.00;100363.59;5007240;28;20053;-68
2022/11/29 05:16:37;;;;;;;1.50;1.00;;;;;;;6.10;100.00;100350.94;5011785;28;20117;-67
2022/11/29 05:19:18;;;;;;;8.43;5.57;;;;;;;5.90;100.00;100365.31;4990418;28;20448;-68
2022/11/29 05:22:05;;;;;;;9.32;6.63;;;;;;;5.92;100.00;100363.59;4991763;28;20088;-67
2022/11/29 05:24:45;;;;;;;4.07;3.40;;;;;;;5.79;100.00;100366.97;4991759;28;20128;-67
2022/11/29 05:27:31;;;;;;;7.32;5.82;;;;;;;6.10;100.00;100364.38;4995423;28;20128;-67
2022/11/29 05:30:05;;;;;;;6.20;4.50;;;;;;;5.74;100.00;100372.03;4993754;28;20120;-66
2022/11/29 05:32:43;;;;;;;4.80;3.50;;;;;;;5.86;100.00;100374.53;4990376;28;20038;-68
2022/11/29 05:35:26;;;;;;;2.40;1.83;;;;;;;5.93;100.00;100375.38;4991500;28;20466;-67
2022/11/29 05:38:30;;;;;;;4.53;2.45;;;;;;;5.94;100.00;100375.34;5008486;28;20041;-68
2022/11/29 05:41:14;;;;;;;6.63;3.20;;;;;;;6.00;100.00;100379.56;4988761;28;20054;-69
2022/11/29 05:44:01;;;;;;;3.35;2.03;;;;;;;5.85;100.00;100379.59;4990791;28;20034;-68
2022/11/29 05:46:42;;;;;;;3.90;1.80;;;;;;;6.80;100.00;100316.00;4991133;28;20065;-66
2022/11/29 05:49:27;;;;;;;3.13;2.13;;;;;;;6.05;100.00;100377.84;4995626;28;20061;-68
2022/11/29 05:52:21;;;;;;;3.55;2.22;;;;;;;6.00;100.00;100377.03;5011280;28;20064;-67
2022/11/29 05:55:13;;;;;;;4.25;2.83;;;;;;;5.83;100.00;100378.72;5009103;28;20037;-67
2022/11/29 05:58:02;;;;;;;4.45;2.72;;;;;;;6.01;100.00;100371.13;5007822;28;20061;-67
2022/11/29 06:00:39;;;;;;;5.63;4.05;;;;;;;5.85;100.00;100375.41;5009919;28;20113;-67
2022/11/29 06:03:05;;;;;;;6.13;3.10;;;;;;;5.89;100.00;100377.06;5010124;28;20108;-68
2022/11/29 06:05:36;;;;;;;4.65;3.10;;;;;;;5.98;100.00;100377.03;5010182;28;20104;-68
2022/11/29 06:08:18;;;;;;;4.18;2.95;;;;;;;6.09;100.00;100371.94;5008594;28;20084;-68
2022/11/29 06:11:00;;;;;;;4.85;2.90;;;;;;;5.56;100.00;100315.75;5009936;28;20069;-67
2022/11/29 06:13:34;;;;;;;5.82;4.40;;;;;;;6.11;100.00;100367.75;5009522;28;20030;-68
2022/11/29 06:16:21;;;;;;;6.50;5.13;;;;;;;5.85;100.00;100372.03;5010031;28;20065;-68
2022/11/29 06:19:24;;;;;;;4.53;3.28;;;;;;;5.90;100.00;100368.63;5009306;28;20069;-68
2022/11/29 06:22:01;;;;;;;2.60;2.00;;;;;;;5.90;100.00;100373.69;5010077;28;20041;-68
2022/11/29 06:24:31;;;;;;;3.92;3.25;;;;;;;5.91;100.00;100372.84;5010302;28;20040;-68
2022/11/29 06:27:14;;;;;;;3.80;1.98;;;;;;;6.08;100.00;100371.09;5010420;28;20129;-68
2022/11/29 06:30:03;;;;;;;3.55;2.60;;;;;;;6.08;100.00;100372.81;5010606;28;20486;-68
2022/11/29 06:32:53;;;;;;;2.97;2.17;;;;;;;6.20;100.00;100367.69;5003261;28;20176;-67
2022/11/29 06:35:33;;;;;;;5.75;3.28;;;;;;;6.01;100.00;100361.03;5010133;28;20041;-68
2022/11/29 06:38:04;;;;;;;4.35;3.10;;;;;;;6.11;100.00;100366.06;5010432;28;20485;-68
2022/11/29 06:40:30;;;;;;;3.00;2.35;;;;;;;6.18;100.00;100361.81;5008334;28;20053;-68
2022/11/29 06:42:55;;;;;;;5.57;3.85;;;;;;;6.29;100.00;100367.66;5010513;28;20029;-68
2022/11/29 06:45:21;;;;;;;4.47;3.20;;;;;;;6.40;100.00;100358.34;5009186;28;20026;-68
2022/11/29 06:48:05;;;;;;;3.40;2.63;;;;;;;5.84;100.00;100277.03;5008713;28;20080;-68
2022/11/29 06:50:49;;;;;;;3.42;2.50;;;;;;;6.58;100.00;100368.34;5008505;28;20038;-68
2022/11/29 06:53:17;;;;;;;3.70;2.70;;;;;;;6.60;100.00;100376.75;5011397;28;20393;-68
2022/11/29 06:56:01;;;;;;;5.57;3.47;;;;;;;6.67;100.00;100364.94;5014356;28;20036;-68
2022/11/29 06:58:33;;;;;;;2.85;1.65;;;;;;;6.43;100.00;100372.66;5013834;28;20117;-68
2022/11/29 07:01:17;;;;;;;3.22;2.30;;;;;;;6.59;100.00;100359.94;5014012;28;20519;-68
2022/11/29 07:04:06;;;;;;;1.95;1.30;;;;;;;6.51;100.00;100364.19;5014067;28;20030;-68
2022/11/29 07:06:34;;;;;;;2.22;1.08;;;;;;;6.70;100.00;100352.28;5014067;28;20116;-68
2022/11/29 07:09:13;;;;;;;2.10;1.40;;;;;;;6.47;100.00;100299.41;5012765;28;20042;-68
2022/11/29 07:11:39;;;;;;;1.58;1.05;;;;;;;6.61;100.00;100332.16;5011842;28;20061;-67
2022/11/29 07:14:05;;;;;;;2.20;1.35;;;;;;;6.70;100.00;100359.84;5014066;28;20048;-68
2022/11/29 07:16:41;;;;;;;1.25;1.00;;;;;;;6.82;100.00;100362.31;5013701;28;20029;-68
2022/11/29 07:19:24;;;;;;;2.58;1.35;;;;;;;6.80;100.00;100351.38;5013795;28;20030;-67
2022/11/29 07:22:27;;;;;;;1.80;1.10;;;;;;;6.80;100.00;100362.31;5013483;28;20022;-68
2022/11/29 07:25:11;;;;;;;2.83;1.70;;;;;;;7.00;100.00;100370.59;4991503;28;20137;-67
2022/11/29 07:27:55;;;;;;;2.30;1.60;;;;;;;6.98;100.00;100366.41;5011611;28;20054;-67
2022/11/29 07:30:26;;;;;;;1.75;1.30;;;;;;;6.48;100.00;100288.44;5013123;28;20464;-70
2022/11/29 07:33:13;;;;;;;3.75;1.38;;;;;;;7.01;100.00;100373.97;5013516;28;20394;-67
2022/11/29 07:36:13;;;;;;;2.25;1.15;;;;;;;7.02;100.00;100375.66;5012240;28;20030;-68
2022/11/29 07:39:16;;;;;;;1.98;1.20;;;;;;;7.15;100.00;100378.94;5008313;28;20108;-68
2022/11/29 07:41:57;;;;;;;3.25;2.20;;;;;;;7.11;100.00;100384.84;5012137;28;20533;-67
2022/11/29 07:44:49;;;;;;;2.53;1.40;;;;;;;6.96;100.00;100366.44;5013137;28;20535;-68
2022/11/29 07:47:14;;;;;;;4.20;2.55;;;;;;;7.00;100.00;100355.44;5006945;28;20497;-68
2022/11/29 07:49:40;;;;;;;4.60;2.60;;;;;;;7.15;100.00;100372.16;5013468;28;20060;-67
2022/11/29 07:52:05;;;;;;;3.75;2.40;;;;;;;7.17;100.00;100349.41;5012831;28;20092;-68
2022/11/29 07:54:31;;;;;;;6.32;4.07;;;;;;;7.27;100.00;100376.31;5011700;28;20026;-68
2022/11/29 07:56:56;;;;;;;5.22;4.00;;;;;;;7.14;100.00;100346.91;5013050;28;20505;-68
2022/11/29 07:59:22;;;;;;;3.88;2.97;;;;;;;7.23;100.00;100345.13;5012860;28;20038;-68
2022/11/29 08:01:47;;;;;;;6.90;4.47;;;;;;;6.78;100.00;100307.59;5011482;28;20025;-69
2022/11/29 08:04:13;;;;;;;7.20;4.75;;;;;;;7.01;100.00;100329.31;5012311;28;20029;-68
2022/11/29 08:06:38;;;;;;;5.10;3.85;;;;;;;7.32;100.00;100347.59;5012401;28;20022;-68
2022/11/29 08:09:04;;;;;;;4.43;3.40;;;;;;;7.24;100.00;100340.91;5013194;28;20042;-69
2022/11/29 08:11:29;;;;;;;6.30;4.07;;;;;;;7.42;100.00;100386.28;5012762;28;20088;-68
2022/11/29 08:14:03;;;;;;;6.15;3.85;;;;;;;7.41;100.00;100397.22;5012501;28;20069;-69
2022/11/29 08:16:29;;;;;;;5.18;3.65;;;;;;;7.26;100.00;100355.22;5012422;28;20420;-69
2022/11/29 08:18:54;;;;;;;6.53;4.03;;;;;;;7.26;100.00;100351.84;5012556;28;20026;-68
2022/11/29 08:21:20;;;;;;;5.70;3.53;;;;;;;7.57;100.00;100399.63;5011337;28;20030;-68
2022/11/29 08:23:47;;;;;;;4.20;3.03;;;;;;;7.35;100.00;100364.44;5011108;28;20033;-68
2022/11/29 08:26:14;;;;;;;9.30;6.30;;;;;;;7.24;100.00;100359.47;5011487;28;20034;-68
2022/11/29 08:28:40;;;;;;;10.02;7.60;;;;;;;7.58;100.00;100403.00;5012628;28;20029;-68
2022/11/29 08:31:08;;;;;;;10.75;7.03;;;;;;;7.20;100.00;100346.84;5011924;28;20042;-68
2022/11/29 08:33:39;;;;;;;10.43;7.10;;;;;;;7.43;100.00;100352.53;5012470;28;20133;-68
2022/11/29 08:36:13;;;;;;;6.43;4.30;;;;;;;7.55;100.00;100396.28;5011990;28;20038;-69
2022/11/29 08:38:39;;;;;;;9.32;6.25;;;;;;;7.61;100.00;100395.38;5010702;28;20513;-68
2022/11/29 08:41:06;;;;;;;12.20;7.50;;;;;;;7.62;100.00;100405.50;5012419;28;20089;-69
2022/11/29 08:43:32;;;;;;;8.63;5.90;;;;;;;7.52;100.00;100390.41;5011967;28;20033;-68
2022/11/29 08:45:58;;;;;;;8.57;5.93;;;;;;;7.63;100.00;100396.19;5011971;28;20036;-68
2022/11/29 08:48:24;;;;;;;5.60;4.18;;;;;;;7.50;100.00;100377.78;5012032;28;20175;-69
2022/11/29 08:50:51;;;;;;;3.40;2.35;;;;;;;7.68;100.00;100404.59;5012063;28;20034;-69
2022/11/29 08:56:01;;;;;;;5.78;3.97;;;;;;;7.65;100.00;100374.25;5012084;28;20128;-69
2022/11/29 08:58:27;;;;;;;3.60;3.00;;;;;;;7.88;100.00;100398.47;5011989;28;20112;-69
2022/11/29 09:00:53;;;;;;;3.35;1.40;;;;;;;7.65;100.00;100349.78;5012050;28;20030;-69
2022/11/29 09:06:14;;;;;;;4.65;3.05;;;;;;;7.57;100.00;100363.38;5011636;28;20088;-68
2022/11/29 09:08:44;;;;;;;9.52;6.85;;;;;;;7.58;100.00;100352.41;5011659;28;20033;-68
2022/11/29 09:11:12;;;;;;;9.10;6.47;;;;;;;7.70;100.00;100349.75;5010408;28;20030;-68
2022/11/29 09:13:39;;;;;;;16.48;12.57;;;;;;;7.90;100.00;100385.81;5011353;28;20116;-68
2022/11/29 09:16:06;;;;;;;6.57;5.43;;;;;;;7.66;100.00;100343.91;5011547;28;20034;-67
2022/11/29 09:18:32;;;;;;;7.53;5.90;;;;;;;7.73;100.00;100332.84;5009959;28;20562;-67
2022/11/29 09:20:58;;;;;;;6.72;5.25;;;;;;;7.85;100.00;100383.31;5011312;28;20038;-66
2022/11/29 09:23:24;;;;;;;4.05;2.95;;;;;;;7.76;100.00;100380.06;5011176;28;20084;-67
2022/11/29 09:25:49;;;;;;;6.68;4.03;;;;;;;7.63;100.00;100365.84;5011453;28;20026;-68
2022/11/29 09:28:15;;;;;;;8.30;5.15;;;;;;;7.40;100.00;100286.81;5010184;28;20033;-67
2022/11/29 09:30:40;;;;;;;6.70;3.53;;;;;;;7.90;100.00;100347.84;5010848;28;20113;-67
2022/11/29 09:33:05;;;;;;;2.88;2.13;;;;;;;7.65;100.00;100309.31;5010807;28;20488;-67
2022/11/29 09:35:31;;;;;;;6.03;3.40;;;;;;;7.88;100.00;100362.22;5009886;28;20024;-67
2022/11/29 09:37:57;;;;;;;6.43;4.75;;;;;;;7.99;100.00;100351.94;5010040;28;20563;-67
2022/11/29 09:40:32;;;;;;;4.53;3.10;;;;;;;7.84;100.00;100350.44;5010499;28;20509;-68
2022/11/29 09:43:20;;;;;;;8.07;6.15;;;;;;;7.92;100.00;100361.34;5010959;28;20045;-68
2022/11/29 09:45:54;;;;;;;5.97;4.18;;;;;;;7.56;100.00;100306.91;5011553;28;20100;-68
2022/11/29 09:48:40;;;;;;;6.85;5.30;;;;;;;8.11;100.00;100352.66;5010742;28;20021;-68
2022/11/29 09:51:08;;;;;;;7.72;4.40;;;;;;;8.03;100.00;100346.84;5010766;28;20030;-68
2022/11/29 09:53:48;;;;;;;7.30;6.18;;;;;;;8.09;100.00;100341.72;5010949;28;20088;-67
2022/11/29 09:56:17;;;;;;;3.95;2.92;;;;;;;8.21;100.00;100341.56;5011252;28;20052;-68
2022/11/29 09:58:54;;;;;;;3.55;2.60;;;;;;;8.17;100.00;100327.25;5010491;28;20037;-68
2022/11/29 10:01:25;;;;;;;4.22;3.70;;;;;;;8.13;100.00;100319.72;5010721;28;20057;-68
2022/11/29 10:04:00;;;;;;;5.97;4.25;;;;;;;7.99;100.00;100281.91;5010206;28;20038;-68
2022/11/29 10:06:37;;;;;;;6.57;4.13;;;;;;;8.13;100.00;100282.59;5010939;28;20088;-68
2022/11/29 10:09:12;;;;;;;5.03;3.58;;;;;;;8.29;100.00;100329.66;5010477;28;20416;-67
2022/11/29 10:11:49;;;;;;;3.90;3.00;;;;;;;8.31;100.00;100300.09;5010673;28;20477;-68
2022/11/29 10:14:21;;;;;;;4.75;3.35;;;;;;;8.32;100.00;100258.69;5010543;28;20052;-68
2022/11/29 10:17:03;;;;;;;3.90;3.10;;;;;;;8.43;100.00;100312.59;5010577;28;20478;-68
2022/11/29 10:19:35;;;;;;;2.60;2.13;;;;;;;8.47;100.00;100301.56;5010388;28;20417;-68
2022/11/29 10:22:09;;;;;;;;;;;;;;;8.53;100.00;100311.59;5010602;28;20036;-68
2022/11/29 10:24:36;;;;;;;2.47;1.50;;;;;;;7.86;100.00;100243.25;5010700;28;19953;-68
2022/11/29 10:27:13;;;;;;;2.40;1.30;;;;;;;8.36;100.00;100300.03;5010450;28;20105;-68
2022/11/29 10:29:38;;;;;;;2.17;1.30;;;;;;;8.23;100.00;100312.00;5010106;28;20030;-68
2022/11/29 10:32:12;;;;;;;1.77;1.20;;;;;;;8.23;100.00;100301.00;5010503;28;20096;-67
2022/11/29 10:34:39;;;;;;;1.58;0.95;;;;;;;8.10;100.00;100277.53;5010310;28;20068;-67
2022/11/29 10:37:09;;;;;;;1.20;0.82;;;;;;;7.96;100.00;100266.78;4313733;28;10000787;-67
2022/11/29 10:39:57;;;;;;;1.42;1.10;;;;;;;8.12;100.00;100260.63;5001011;28;20256;-67
2022/11/29 10:45:36;;;;;;;2.50;1.55;;;;;;;8.28;100.00;100297.59;5004490;28;20933;-67
2022/11/29 10:48:17;;;;;;;4.40;1.70;;;;;;;8.41;100.00;100303.34;5004849;28;20041;-68
2022/11/29 10:50:44;;;;;;;3.50;2.05;;;;;;;8.44;100.00;100296.53;4997824;28;20537;-68
2022/11/29 10:53:13;;;;;;;4.05;2.72;;;;;;;8.89;100.00;100297.53;4989190;28;20053;-70
2022/11/29 10:55:48;;;;;;;3.58;2.10;;;;;;;8.67;100.00;100304.66;4988323;28;20089;-69
2022/11/29 10:58:22;;;;;;;5.55;2.55;;;;;;;8.60;100.00;100294.59;4972466;28;20596;-67
2022/11/29 11:01:06;;;;;;;2.95;2.28;;;;;;;8.47;100.00;100255.97;4988459;28;20147;-68
2022/11/29 11:03:48;;;;;;;4.05;2.20;;;;;;;8.45;100.00;100251.75;4988594;28;20077;-68
2022/11/29 11:06:25;;;;;;;;;;;;;;;8.80;100.00;100295.13;4988760;28;20058;-68
2022/11/29 11:08:52;;;;;;;4.25;2.25;;;;;;;8.60;100.00;100300.50;4973787;28;19921;-68
2022/11/29 11:11:29;;;;;;;2.83;1.85;;;;;;;8.55;100.00;100292.16;4990354;28;20034;-68
2022/11/29 11:14:20;;;;;;;2.63;1.85;;;;;;;8.73;100.00;100299.44;4990379;28;20034;-68
2022/11/29 11:16:46;;;;;;;4.25;2.63;;;;;;;8.43;100.00;100243.34;4981091;28;20449;-68
2022/11/29 11:19:30;;;;;;;3.92;2.22;;;;;;;8.67;100.00;100291.13;4988510;28;20045;-67
2022/11/29 11:21:58;;;;;;;2.90;2.00;;;;;;;8.41;100.00;100248.44;4990197;28;20081;-68
2022/11/29 11:24:30;;;;;;;4.10;2.70;;;;;;;8.44;100.00;100239.94;4988781;28;20034;-68
2022/11/29 11:26:56;;;;;;;5.25;2.53;;;;;;;8.51;100.00;100231.41;4990506;28;20113;-68
2022/11/29 11:29:25;;;;;;;3.97;2.47;;;;;;;8.47;100.00;100239.91;4989986;28;20057;-68
2022/11/29 11:31:56;;;;;;;4.93;2.45;;;;;;;8.62;100.00;100270.91;4988740;28;20034;-68
2022/11/29 11:34:48;;;;;;;2.60;1.63;;;;;;;8.70;100.00;100283.47;4990138;28;20102;-68
2022/11/29 11:37:13;;;;;;;3.35;2.65;;;;;;;8.77;100.00;100281.69;4984208;28;20049;-68
2022/11/29 11:39:40;;;;;;;3.88;2.90;;;;;;;8.46;100.00;100223.03;4989007;28;20441;-68
2022/11/29 11:44:56;;;;;;;5.20;3.13;;;;;;;8.66;100.00;100259.88;4993602;28;20030;-68
2022/11/29 11:47:28;;;;;;;3.22;2.15;;;;;;;8.11;100.00;100188.09;4992579;28;20050;-68
2022/11/29 11:50:05;;;;;;;1.90;1.38;;;;;;;8.53;100.00;100260.94;4993505;28;20031;-68
2022/11/29 11:52:43;;;;;;;1.70;1.15;;;;;;;8.69;100.00;100271.66;4993396;28;20484;-68
2022/11/29 11:55:24;;;;;;;2.03;1.40;;;;;;;8.71;100.00;100258.09;4993502;28;20034;-68
2022/11/29 11:58:11;;;;;;;1.13;0.90;;;;;;;8.55;100.00;100256.69;4993206;28;20065;-68
2022/11/29 12:00:41;;;;;;;1.88;1.27;;;;;;;8.73;100.00;100245.41;4993077;28;20041;-67
2022/11/29 12:03:34;;;;;;;3.53;2.00;;;;;;;8.44;100.00;100248.38;4993771;28;20110;-67
2022/11/29 12:06:14;;;;;;;3.55;1.90;;;;;;;8.46;100.00;100249.19;4993246;28;20164;-67
2022/11/29 12:08:42;;;;;;;1.80;1.13;;;;;;;8.52;100.00;100255.88;4993268;28;20026;-68
2022/11/29 12:11:11;;;;;;;4.07;1.95;;;;;;;8.40;100.00;100207.91;4993263;28;20508;-68
2022/11/29 12:13:41;;;;;;;4.43;2.30;;;;;;;8.49;100.00;100239.03;4992672;28;20038;-67
2022/11/29 12:16:13;;;;;;;2.72;2.13;;;;;;;8.00;100.00;100159.56;4992860;28;20038;-68
2022/11/29 12:18:47;;;;;;;2.17;1.60;;;;;;;8.34;100.00;100216.44;4992522;28;20394;-68
2022/11/29 12:21:16;;;;;;;2.53;1.95;;;;;;;8.16;100.00;100193.09;4992833;28;20081;-68